sensor_id;sensor_type;location;lat;lon;timestamp;temperature;humidity
21928;DHT22;11128;51.096;17.190;2022-08-19T00:03:59;24.80;1.00
21928;DHT22;11128;51.096;17.190;2022-08-19T00:09:01;24.70;1.00
21928;DHT22;11128;51.096;17.190;2022-08-19T00:14:04;24.70;10.80
21928;DHT22;11128;51.096;17.190;2022-08-19T00:19:08;24.60;99.90
21928;DHT22;11128;51.096;17.190;2022-08-19T00:24:12;24.50;99.90
21928;DHT22;11128;51.096;17.190;2022-08-19T00:29:16;24.40;99.90
21928;DHT22;11128;51.096;17.190;2022-08-19T00:34:18;24.30;99.90
21928;DHT22;11128;51.096;17.190;2022-08-19T00:39:20;24.20;99.90
21928;DHT22;11128;51.096;17.190;2022-08-19T00:44:26;24.10;1.00
21928;DHT22;11128;51.096;17.190;2022-08-19T00:49:37;24.00;1.00
21928;DHT22;11128;51.096;17.190;2022-08-19T00:54:41;23.90;1.00
21928;DHT22;11128;51.096;17.190;2022-08-19T00:59:46;23.90;1.00
21928;DHT22;11128;51.096;17.190;2022-08-19T01:04:49;23.80;1.00
21928;DHT22;11128;51.096;17.190;2022-08-19T01:09:50;23.70;1.00
21928;DHT22;11128;51.096;17.190;2022-08-19T01:14:52;23.80;99.90
21928;DHT22;11128;51.096;17.190;2022-08-19T01:19:55;23.70;99.90
21928;DHT22;11128;51.096;17.190;2022-08-19T01:24:57;23.70;99.90
21928;DHT22;11128;51.096;17.190;2022-08-19T01:29:59;23.70;99.90
21928;DHT22;11128;51.096;17.190;2022-08-19T01:35:03;23.60;1.00
21928;DHT22;11128;51.096;17.190;2022-08-19T01:40:05;23.50;1.00
21928;DHT22;11128;51.096;17.190;2022-08-19T01:45:08;23.50;1.00
21928;DHT22;11128;51.096;17.190;2022-08-19T01:50:11;23.40;1.00
21928;DHT22;11128;51.096;17.190;2022-08-19T01:55:14;23.30;1.00
21928;DHT22;11128;51.096;17.190;2022-08-19T02:00:20;23.20;1.00
21928;DHT22;11128;51.096;17.190;2022-08-19T02:05:23;23.10;99.90
21928;DHT22;11128;51.096;17.190;2022-08-19T02:10:25;23.00;99.90
21928;DHT22;11128;51.096;17.190;2022-08-19T02:15:27;22.90;1.00
21928;DHT22;11128;51.096;17.190;2022-08-19T02:20:28;22.70;1.00
21928;DHT22;11128;51.096;17.190;2022-08-19T02:25:30;22.60;1.00
21928;DHT22;11128;51.096;17.190;2022-08-19T02:30:32;22.50;99.90
21928;DHT22;11128;51.096;17.190;2022-08-19T02:35:34;22.50;40.20
21928;DHT22;11128;51.096;17.190;2022-08-19T02:40:35;22.40;56.60
21928;DHT22;11128;51.096;17.190;2022-08-19T02:45:38;22.40;1.00
21928;DHT22;11128;51.096;17.190;2022-08-19T02:50:43;22.30;99.90
21928;DHT22;11128;51.096;17.190;2022-08-19T02:55:46;22.20;1.00
21928;DHT22;11128;51.096;17.190;2022-08-19T03:00:51;22.20;1.00
21928;DHT22;11128;51.096;17.190;2022-08-19T03:06:13;22.00;1.00
21928;DHT22;11128;51.096;17.190;2022-08-19T03:11:18;21.90;1.00
21928;DHT22;11128;51.096;17.190;2022-08-19T03:16:22;21.90;99.90
21928;DHT22;11128;51.096;17.190;2022-08-19T03:21:26;21.80;99.90
21928;DHT22;11128;51.096;17.190;2022-08-19T03:26:29;21.70;1.00
21928;DHT22;11128;51.096;17.190;2022-08-19T03:31:31;21.60;1.00
21928;DHT22;11128;51.096;17.190;2022-08-19T03:36:33;21.70;1.00
21928;DHT22;11128;51.096;17.190;2022-08-19T03:41:39;21.70;1.00
21928;DHT22;11128;51.096;17.190;2022-08-19T03:46:41;21.60;99.90
21928;DHT22;11128;51.096;17.190;2022-08-19T03:51:46;21.60;1.00
21928;DHT22;11128;51.096;17.190;2022-08-19T03:56:50;21.50;99.90
21928;DHT22;11128;51.096;17.190;2022-08-19T04:01:53;21.30;99.90
21928;DHT22;11128;51.096;17.190;2022-08-19T04:06:56;21.30;1.00
21928;DHT22;11128;51.096;17.190;2022-08-19T04:11:58;21.20;1.00
21928;DHT22;11128;51.096;17.190;2022-08-19T04:17:00;21.20;33.90
21928;DHT22;11128;51.096;17.190;2022-08-19T04:22:04;21.20;1.00
21928;DHT22;11128;51.096;17.190;2022-08-19T04:27:06;21.30;1.00
21928;DHT22;11128;51.096;17.190;2022-08-19T04:32:07;21.40;1.00
21928;DHT22;11128;51.096;17.190;2022-08-19T04:37:09;21.40;1.00
21928;DHT22;11128;51.096;17.190;2022-08-19T04:42:13;21.60;1.00
21928;DHT22;11128;51.096;17.190;2022-08-19T04:47:34;21.60;1.00
21928;DHT22;11128;51.096;17.190;2022-08-19T04:52:35;21.70;1.00
21928;DHT22;11128;51.096;17.190;2022-08-19T04:57:37;21.80;1.00
21928;DHT22;11128;51.096;17.190;2022-08-19T05:02:41;21.80;9.90
21928;DHT22;11128;51.096;17.190;2022-08-19T05:07:42;22.00;1.00
21928;DHT22;11128;51.096;17.190;2022-08-19T05:12:44;22.10;1.00
21928;DHT22;11128;51.096;17.190;2022-08-19T05:17:45;22.20;1.00
21928;DHT22;11128;51.096;17.190;2022-08-19T05:23:06;22.30;99.90
21928;DHT22;11128;51.096;17.190;2022-08-19T05:28:08;22.40;8.00
21928;DHT22;11128;51.096;17.190;2022-08-19T05:33:09;22.50;1.00
21928;DHT22;11128;51.096;17.190;2022-08-19T05:38:11;22.60;1.00
21928;DHT22;11128;51.096;17.190;2022-08-19T05:43:14;22.80;99.90
21928;DHT22;11128;51.096;17.190;2022-08-19T05:48:18;22.80;99.90
21928;DHT22;11128;51.096;17.190;2022-08-19T05:53:21;22.90;34.60
21928;DHT22;11128;51.096;17.190;2022-08-19T05:58:23;23.00;1.00
21928;DHT22;11128;51.096;17.190;2022-08-19T06:03:25;23.10;1.00
21928;DHT22;11128;51.096;17.190;2022-08-19T06:08:28;23.10;1.00
21928;DHT22;11128;51.096;17.190;2022-08-19T06:13:29;23.30;1.00
21928;DHT22;11128;51.096;17.190;2022-08-19T06:18:31;23.40;99.90
21928;DHT22;11128;51.096;17.190;2022-08-19T06:23:34;23.50;66.10
21928;DHT22;11128;51.096;17.190;2022-08-19T06:28:36;23.60;1.00
21928;DHT22;11128;51.096;17.190;2022-08-19T06:33:38;23.80;1.00
21928;DHT22;11128;51.096;17.190;2022-08-19T06:38:40;23.90;99.90
21928;DHT22;11128;51.096;17.190;2022-08-19T06:43:42;24.00;10.80
21928;DHT22;11128;51.096;17.190;2022-08-19T06:48:44;24.20;1.00
21928;DHT22;11128;51.096;17.190;2022-08-19T06:53:51;24.50;99.90
21928;DHT22;11128;51.096;17.190;2022-08-19T06:58:52;24.60;25.70
21928;DHT22;11128;51.096;17.190;2022-08-19T07:03:54;24.90;1.00
21928;DHT22;11128;51.096;17.190;2022-08-19T07:08:56;25.10;1.00
21928;DHT22;11128;51.096;17.190;2022-08-19T07:14:00;25.50;99.90
21928;DHT22;11128;51.096;17.190;2022-08-19T07:19:02;25.70;99.90
21928;DHT22;11128;51.096;17.190;2022-08-19T07:24:05;26.00;1.00
21928;DHT22;11128;51.096;17.190;2022-08-19T07:29:09;26.20;1.00
21928;DHT22;11128;51.096;17.190;2022-08-19T07:34:11;26.50;1.00
21928;DHT22;11128;51.096;17.190;2022-08-19T07:39:23;26.80;1.00
21928;DHT22;11128;51.096;17.190;2022-08-19T07:44:26;27.00;1.00
21928;DHT22;11128;51.096;17.190;2022-08-19T07:49:28;27.20;99.90
21928;DHT22;11128;51.096;17.190;2022-08-19T07:54:31;27.50;99.90
21928;DHT22;11128;51.096;17.190;2022-08-19T07:59:39;27.80;99.90
21928;DHT22;11128;51.096;17.190;2022-08-19T08:04:41;28.20;99.90
21928;DHT22;11128;51.096;17.190;2022-08-19T08:10:06;28.50;99.90
21928;DHT22;11128;51.096;17.190;2022-08-19T08:15:11;28.90;99.90
21928;DHT22;11128;51.096;17.190;2022-08-19T08:20:18;29.20;99.90
21928;DHT22;11128;51.096;17.190;2022-08-19T08:25:23;29.00;99.90
21928;DHT22;11128;51.096;17.190;2022-08-19T08:30:28;28.70;92.70
21928;DHT22;11128;51.096;17.190;2022-08-19T08:35:30;28.70;99.90
21928;DHT22;11128;51.096;17.190;2022-08-19T08:40:51;29.10;99.90
21928;DHT22;11128;51.096;17.190;2022-08-19T08:51:13;30.30;52.80
21928;DHT22;11128;51.096;17.190;2022-08-19T08:56:17;30.60;12.60
21928;DHT22;11128;51.096;17.190;2022-08-19T09:01:19;31.10;11.00
21928;DHT22;11128;51.096;17.190;2022-08-19T09:11:53;32.50;1.00
21928;DHT22;11128;51.096;17.190;2022-08-19T09:16:57;33.20;1.00
21928;DHT22;11128;51.096;17.190;2022-08-19T09:21:59;33.40;1.00
21928;DHT22;11128;51.096;17.190;2022-08-19T09:27:01;33.50;1.00
21928;DHT22;11128;51.096;17.190;2022-08-19T09:32:06;33.70;1.00
21928;DHT22;11128;51.096;17.190;2022-08-19T09:37:09;33.80;1.00
21928;DHT22;11128;51.096;17.190;2022-08-19T09:42:11;34.30;1.00
21928;DHT22;11128;51.096;17.190;2022-08-19T09:47:15;34.70;1.00
21928;DHT22;11128;51.096;17.190;2022-08-19T09:52:17;35.50;1.00
21928;DHT22;11128;51.096;17.190;2022-08-19T09:57:21;35.90;1.00
21928;DHT22;11128;51.096;17.190;2022-08-19T10:02:22;36.10;1.00
21928;DHT22;11128;51.096;17.190;2022-08-19T10:07:24;36.30;1.00
21928;DHT22;11128;51.096;17.190;2022-08-19T10:12:26;36.30;1.00
21928;DHT22;11128;51.096;17.190;2022-08-19T10:17:28;35.80;1.00
21928;DHT22;11128;51.096;17.190;2022-08-19T10:22:30;36.30;1.00
21928;DHT22;11128;51.096;17.190;2022-08-19T10:27:31;35.70;1.00
21928;DHT22;11128;51.096;17.190;2022-08-19T10:32:33;36.40;1.00
21928;DHT22;11128;51.096;17.190;2022-08-19T10:37:36;36.10;1.00
21928;DHT22;11128;51.096;17.190;2022-08-19T10:42:38;36.10;1.00
21928;DHT22;11128;51.096;17.190;2022-08-19T10:47:41;36.60;1.00
21928;DHT22;11128;51.096;17.190;2022-08-19T10:52:46;36.80;1.00
21928;DHT22;11128;51.096;17.190;2022-08-19T10:57:49;36.90;1.00
21928;DHT22;11128;51.096;17.190;2022-08-19T11:02:51;36.40;1.00
21928;DHT22;11128;51.096;17.190;2022-08-19T11:07:53;36.40;1.00
21928;DHT22;11128;51.096;17.190;2022-08-19T11:12:56;36.60;1.00
21928;DHT22;11128;51.096;17.190;2022-08-19T11:17:58;36.60;1.00
21928;DHT22;11128;51.096;17.190;2022-08-19T11:23:02;37.00;1.00
21928;DHT22;11128;51.096;17.190;2022-08-19T11:28:04;36.00;1.00
21928;DHT22;11128;51.096;17.190;2022-08-19T11:33:06;36.20;1.00
21928;DHT22;11128;51.096;17.190;2022-08-19T11:38:08;36.30;1.00
21928;DHT22;11128;51.096;17.190;2022-08-19T11:43:10;36.20;1.00
21928;DHT22;11128;51.096;17.190;2022-08-19T11:48:11;35.90;1.00
21928;DHT22;11128;51.096;17.190;2022-08-19T11:53:13;35.50;1.00
21928;DHT22;11128;51.096;17.190;2022-08-19T11:58:16;35.00;1.00
21928;DHT22;11128;51.096;17.190;2022-08-19T12:03:18;35.00;1.00
21928;DHT22;11128;51.096;17.190;2022-08-19T12:08:20;35.60;1.00
21928;DHT22;11128;51.096;17.190;2022-08-19T12:13:22;36.40;1.00
21928;DHT22;11128;51.096;17.190;2022-08-19T12:18:23;36.30;1.00
21928;DHT22;11128;51.096;17.190;2022-08-19T12:23:26;37.30;1.00
21928;DHT22;11128;51.096;17.190;2022-08-19T12:28:28;37.70;1.00
21928;DHT22;11128;51.096;17.190;2022-08-19T12:33:30;37.50;1.00
21928;DHT22;11128;51.096;17.190;2022-08-19T12:38:33;37.30;1.00
21928;DHT22;11128;51.096;17.190;2022-08-19T12:43:36;37.20;1.00
21928;DHT22;11128;51.096;17.190;2022-08-19T12:48:39;37.40;1.00
21928;DHT22;11128;51.096;17.190;2022-08-19T12:53:43;37.20;1.00
21928;DHT22;11128;51.096;17.190;2022-08-19T12:58:45;37.50;1.00
21928;DHT22;11128;51.096;17.190;2022-08-19T13:03:47;37.40;1.00
21928;DHT22;11128;51.096;17.190;2022-08-19T13:08:49;37.50;1.00
21928;DHT22;11128;51.096;17.190;2022-08-19T13:13:52;37.70;1.00
21928;DHT22;11128;51.096;17.190;2022-08-19T13:18:55;38.00;1.00
21928;DHT22;11128;51.096;17.190;2022-08-19T13:23:57;38.00;1.00
21928;DHT22;11128;51.096;17.190;2022-08-19T13:29:02;38.00;1.00
21928;DHT22;11128;51.096;17.190;2022-08-19T13:34:29;37.60;1.00
21928;DHT22;11128;51.096;17.190;2022-08-19T13:39:32;37.80;1.00
21928;DHT22;11128;51.096;17.190;2022-08-19T13:44:34;38.20;1.00
21928;DHT22;11128;51.096;17.190;2022-08-19T13:49:36;37.70;1.00
21928;DHT22;11128;51.096;17.190;2022-08-19T13:54:38;36.90;1.00
21928;DHT22;11128;51.096;17.190;2022-08-19T13:59:39;36.10;1.00
21928;DHT22;11128;51.096;17.190;2022-08-19T14:04:41;35.60;1.00
21928;DHT22;11128;51.096;17.190;2022-08-19T14:09:42;35.20;1.00
21928;DHT22;11128;51.096;17.190;2022-08-19T14:14:43;35.00;1.00
21928;DHT22;11128;51.096;17.190;2022-08-19T14:19:46;34.70;1.00
21928;DHT22;11128;51.096;17.190;2022-08-19T14:24:47;34.30;1.00
21928;DHT22;11128;51.096;17.190;2022-08-19T14:29:49;33.90;1.00
21928;DHT22;11128;51.096;17.190;2022-08-19T14:34:51;33.70;1.00
21928;DHT22;11128;51.096;17.190;2022-08-19T14:39:52;33.50;1.00
21928;DHT22;11128;51.096;17.190;2022-08-19T14:44:58;33.20;1.00
21928;DHT22;11128;51.096;17.190;2022-08-19T14:50:00;32.90;1.00
21928;DHT22;11128;51.096;17.190;2022-08-19T14:55:03;32.80;1.00
21928;DHT22;11128;51.096;17.190;2022-08-19T15:00:05;32.80;1.00
21928;DHT22;11128;51.096;17.190;2022-08-19T15:05:08;32.70;1.00
21928;DHT22;11128;51.096;17.190;2022-08-19T15:10:11;32.70;1.00
21928;DHT22;11128;51.096;17.190;2022-08-19T15:15:14;32.50;1.00
21928;DHT22;11128;51.096;17.190;2022-08-19T15:20:19;32.40;1.00
21928;DHT22;11128;51.096;17.190;2022-08-19T15:25:22;32.30;1.00
21928;DHT22;11128;51.096;17.190;2022-08-19T15:30:26;32.30;1.00
21928;DHT22;11128;51.096;17.190;2022-08-19T15:35:29;32.10;1.00
21928;DHT22;11128;51.096;17.190;2022-08-19T15:40:31;31.90;1.00
21928;DHT22;11128;51.096;17.190;2022-08-19T15:45:33;31.70;1.00
21928;DHT22;11128;51.096;17.190;2022-08-19T15:50:34;31.50;1.00
21928;DHT22;11128;51.096;17.190;2022-08-19T15:55:42;31.20;1.00
21928;DHT22;11128;51.096;17.190;2022-08-19T16:00:44;30.90;1.00
21928;DHT22;11128;51.096;17.190;2022-08-19T16:06:04;30.60;1.00
21928;DHT22;11128;51.096;17.190;2022-08-19T16:11:26;30.30;1.00
21928;DHT22;11128;51.096;17.190;2022-08-19T16:16:32;30.10;1.00
21928;DHT22;11128;51.096;17.190;2022-08-19T16:21:34;29.90;1.00
21928;DHT22;11128;51.096;17.190;2022-08-19T16:26:37;29.80;1.00
21928;DHT22;11128;51.096;17.190;2022-08-19T16:31:41;29.70;1.00
21928;DHT22;11128;51.096;17.190;2022-08-19T16:36:44;29.60;68.70
21928;DHT22;11128;51.096;17.190;2022-08-19T16:41:45;29.40;99.90
21928;DHT22;11128;51.096;17.190;2022-08-19T16:46:47;29.30;99.90
21928;DHT22;11128;51.096;17.190;2022-08-19T16:51:49;29.20;99.90
21928;DHT22;11128;51.096;17.190;2022-08-19T16:56:51;29.20;99.90
21928;DHT22;11128;51.096;17.190;2022-08-19T17:01:52;29.10;1.00
21928;DHT22;11128;51.096;17.190;2022-08-19T17:06:54;29.00;1.00
21928;DHT22;11128;51.096;17.190;2022-08-19T17:11:56;28.80;1.00
21928;DHT22;11128;51.096;17.190;2022-08-19T17:16:58;28.80;1.00
21928;DHT22;11128;51.096;17.190;2022-08-19T17:21:59;28.60;1.00
21928;DHT22;11128;51.096;17.190;2022-08-19T17:27:01;28.50;1.00
21928;DHT22;11128;51.096;17.190;2022-08-19T17:32:02;28.40;1.00
21928;DHT22;11128;51.096;17.190;2022-08-19T17:37:05;28.20;1.00
21928;DHT22;11128;51.096;17.190;2022-08-19T17:42:06;28.10;1.00
21928;DHT22;11128;51.096;17.190;2022-08-19T17:47:08;28.00;1.00
21928;DHT22;11128;51.096;17.190;2022-08-19T17:52:11;27.90;1.00
21928;DHT22;11128;51.096;17.190;2022-08-19T17:57:12;27.90;1.00
21928;DHT22;11128;51.096;17.190;2022-08-19T18:02:14;27.80;1.00
21928;DHT22;11128;51.096;17.190;2022-08-19T18:07:17;27.70;1.00
21928;DHT22;11128;51.096;17.190;2022-08-19T18:12:23;27.50;1.00
21928;DHT22;11128;51.096;17.190;2022-08-19T18:17:27;27.50;45.10
21928;DHT22;11128;51.096;17.190;2022-08-19T18:22:38;27.40;47.40
21928;DHT22;11128;51.096;17.190;2022-08-19T18:27:40;27.40;99.90
21928;DHT22;11128;51.096;17.190;2022-08-19T18:32:44;27.30;99.90
21928;DHT22;11128;51.096;17.190;2022-08-19T18:37:50;27.20;99.90
21928;DHT22;11128;51.096;17.190;2022-08-19T18:42:52;27.10;99.90
21928;DHT22;11128;51.096;17.190;2022-08-19T18:48:12;27.00;99.90
21928;DHT22;11128;51.096;17.190;2022-08-19T18:53:36;26.70;1.00
21928;DHT22;11128;51.096;17.190;2022-08-19T18:58:42;26.60;99.90
21928;DHT22;11128;51.096;17.190;2022-08-19T19:03:47;26.60;99.90
21928;DHT22;11128;51.096;17.190;2022-08-19T19:08:51;26.50;1.00
21928;DHT22;11128;51.096;17.190;2022-08-19T19:13:53;26.40;1.00
21928;DHT22;11128;51.096;17.190;2022-08-19T19:18:56;26.30;1.00
21928;DHT22;11128;51.096;17.190;2022-08-19T19:23:59;26.50;1.00
21928;DHT22;11128;51.096;17.190;2022-08-19T19:29:01;26.40;99.90
21928;DHT22;11128;51.096;17.190;2022-08-19T19:34:03;26.60;99.90
21928;DHT22;11128;51.096;17.190;2022-08-19T19:39:06;26.50;1.00
21928;DHT22;11128;51.096;17.190;2022-08-19T19:44:08;26.10;99.90
21928;DHT22;11128;51.096;17.190;2022-08-19T19:49:12;25.50;1.00
21928;DHT22;11128;51.096;17.190;2022-08-19T19:54:14;25.00;1.00
21928;DHT22;11128;51.096;17.190;2022-08-19T19:59:16;24.90;1.00
21928;DHT22;11128;51.096;17.190;2022-08-19T20:04:18;24.70;99.90
21928;DHT22;11128;51.096;17.190;2022-08-19T20:09:20;24.50;6.50
21928;DHT22;11128;51.096;17.190;2022-08-19T20:14:25;24.40;1.00
21928;DHT22;11128;51.096;17.190;2022-08-19T20:19:30;24.40;1.00
21928;DHT22;11128;51.096;17.190;2022-08-19T20:24:38;24.40;1.00
21928;DHT22;11128;51.096;17.190;2022-08-19T20:29:42;24.60;1.00
21928;DHT22;11128;51.096;17.190;2022-08-19T20:34:44;24.40;99.90
21928;DHT22;11128;51.096;17.190;2022-08-19T20:39:49;24.50;1.00
21928;DHT22;11128;51.096;17.190;2022-08-19T20:44:51;24.40;90.60
21928;DHT22;11128;51.096;17.190;2022-08-19T20:49:52;24.30;99.90
21928;DHT22;11128;51.096;17.190;2022-08-19T20:54:54;24.30;99.90
21928;DHT22;11128;51.096;17.190;2022-08-19T20:59:57;24.10;99.90
21928;DHT22;11128;51.096;17.190;2022-08-19T21:04:59;24.10;1.00
21928;DHT22;11128;51.096;17.190;2022-08-19T21:10:01;24.00;1.00
21928;DHT22;11128;51.096;17.190;2022-08-19T21:15:03;23.90;1.00
21928;DHT22;11128;51.096;17.190;2022-08-19T21:20:05;23.80;1.00
21928;DHT22;11128;51.096;17.190;2022-08-19T21:25:09;23.80;1.00
21928;DHT22;11128;51.096;17.190;2022-08-19T21:30:12;23.50;1.00
21928;DHT22;11128;51.096;17.190;2022-08-19T21:35:13;23.60;1.00
21928;DHT22;11128;51.096;17.190;2022-08-19T21:40:16;23.60;1.00
21928;DHT22;11128;51.096;17.190;2022-08-19T21:45:18;23.50;1.00
21928;DHT22;11128;51.096;17.190;2022-08-19T21:50:19;23.60;1.00
21928;DHT22;11128;51.096;17.190;2022-08-19T21:55:21;23.50;1.00
21928;DHT22;11128;51.096;17.190;2022-08-19T22:00:23;23.50;1.00
21928;DHT22;11128;51.096;17.190;2022-08-19T22:05:25;23.30;75.60
21928;DHT22;11128;51.096;17.190;2022-08-19T22:10:32;23.40;1.00
21928;DHT22;11128;51.096;17.190;2022-08-19T22:15:34;23.40;1.00
21928;DHT22;11128;51.096;17.190;2022-08-19T22:20:35;23.60;99.90
21928;DHT22;11128;51.096;17.190;2022-08-19T22:25:44;23.60;99.90
21928;DHT22;11128;51.096;17.190;2022-08-19T22:30:46;23.50;99.90
21928;DHT22;11128;51.096;17.190;2022-08-19T22:35:48;23.30;1.00
21928;DHT22;11128;51.096;17.190;2022-08-19T22:40:52;23.10;1.00
21928;DHT22;11128;51.096;17.190;2022-08-19T22:45:55;23.00;1.00
21928;DHT22;11128;51.096;17.190;2022-08-19T22:50:57;23.00;1.00
21928;DHT22;11128;51.096;17.190;2022-08-19T22:56:18;23.00;1.00
21928;DHT22;11128;51.096;17.190;2022-08-19T23:01:21;22.90;1.00
21928;DHT22;11128;51.096;17.190;2022-08-19T23:06:24;22.80;99.90
21928;DHT22;11128;51.096;17.190;2022-08-19T23:11:25;22.80;94.90
21928;DHT22;11128;51.096;17.190;2022-08-19T23:16:27;22.70;99.90
21928;DHT22;11128;51.096;17.190;2022-08-19T23:21:28;22.60;99.90
21928;DHT22;11128;51.096;17.190;2022-08-19T23:26:31;22.60;1.00
21928;DHT22;11128;51.096;17.190;2022-08-19T23:31:32;22.50;1.00
21928;DHT22;11128;51.096;17.190;2022-08-19T23:36:35;22.50;1.00
21928;DHT22;11128;51.096;17.190;2022-08-19T23:41:36;22.50;1.00
21928;DHT22;11128;51.096;17.190;2022-08-19T23:46:39;22.50;1.00
21928;DHT22;11128;51.096;17.190;2022-08-19T23:51:41;22.40;1.00
21928;DHT22;11128;51.096;17.190;2022-08-19T23:56:43;22.40;1.00
